Time;durP1;ratioP1;P1;durP2;ratioP2;P2;SDS_P1;SDS_P2;PMS_P1;PMS_P2;Temp;Humidity;BMP_temperature;BMP_pressure;BME280_temperature;BME280_humidity;BME280_pressure;Samples;Min_cycle;Max_cycle;Signal;HPM_P1;HPM_P2
2021/01/03 00:00:23;;;;;;;;;70.00;54.00;;;;;9.13;48.81;98616.81;6160824;28;125179;-59
2021/01/03 00:03:24;;;;;;;;;67.00;51.00;;;;;9.16;49.16;98612.84;6160305;28;127911;-59
2021/01/03 00:06:25;;;;;;;;;65.40;50.40;;;;;9.24;48.83;98607.19;6160796;28;127478;-59
2021/01/03 00:09:27;;;;;;;;;65.00;51.00;;;;;9.28;48.91;98605.72;6154721;28;126356;-59
2021/01/03 00:12:29;;;;;;;;;64.40;50.00;;;;;9.35;49.00;98605.66;6159528;28;127356;-59
2021/01/03 00:15:30;;;;;;;;;64.40;49.60;;;;;9.28;48.49;98594.97;6160466;28;126558;-60
2021/01/03 00:18:31;;;;;;;;;65.33;50.33;;;;;9.39;48.85;98598.78;6159680;28;126238;-59
2021/01/03 00:21:33;;;;;;;;;68.00;51.00;;;;;9.43;48.51;98606.19;6160887;28;127190;-59
2021/01/03 00:24:34;;;;;;;;;63.00;48.80;;;;;9.41;48.70;98592.16;6160801;28;126709;-59
2021/01/03 00:27:36;;;;;;;;;64.80;50.20;;;;;9.45;48.78;98582.59;6160309;28;125504;-59
2021/01/03 00:30:37;;;;;;;;;62.50;49.50;;;;;9.50;48.48;98590.00;6160458;28;127229;-59
2021/01/03 00:33:39;;;;;;;;;65.00;50.00;;;;;9.46;48.36;98602.25;6160419;28;128283;-59
2021/01/03 00:36:40;;;;;;;;;63.20;50.20;;;;;9.41;48.42;98599.41;6159882;28;126523;-58
2021/01/03 00:39:42;;;;;;;;;64.60;51.00;;;;;9.36;48.17;98608.13;6159736;28;126988;-58
2021/01/03 00:42:44;;;;;;;;;63.00;48.33;;;;;9.31;47.91;98607.97;6159879;28;125502;-59
2021/01/03 00:45:46;;;;;;;;;66.25;52.00;;;;;9.21;48.60;98609.50;6159362;28;126620;-59
2021/01/03 00:48:47;;;;;;;;;64.60;51.00;;;;;9.18;49.11;98621.53;6155438;28;127392;-59
2021/01/03 00:51:48;;;;;;;;;66.25;51.25;;;;;9.17;49.38;98622.56;6160344;28;127890;-59
2021/01/03 00:54:50;;;;;;;;;65.80;50.80;;;;;9.17;48.96;98616.38;6158686;28;126693;-59
2021/01/03 00:57:52;;;;;;;;;65.00;50.40;;;;;9.13;48.26;98618.69;6160367;28;125348;-59
2021/01/03 01:00:53;;;;;;;;;67.00;51.00;;;;;9.03;48.12;98599.53;6159171;28;126060;-59
2021/01/03 01:03:55;;;;;;;;;64.50;50.25;;;;;9.04;48.14;98601.16;6159767;28;128506;-59
2021/01/03 01:06:56;;;;;;;;;67.00;50.20;;;;;8.84;48.15;98563.69;6158562;28;128218;-59
2021/01/03 01:09:57;;;;;;;;;65.50;50.75;;;;;8.99;48.27;98591.03;6151895;28;127079;-59
2021/01/03 01:13:01;;;;;;;;;65.00;50.50;;;;;9.00;48.45;98583.81;6151154;28;127576;-59
2021/01/03 01:16:07;;;;;;;;;65.00;50.00;;;;;8.97;48.76;98582.41;6158950;28;127039;-59
2021/01/03 01:19:09;;;;;;;;;67.00;51.00;;;;;8.98;48.69;98575.97;6159531;28;125869;-59
2021/01/03 01:22:10;;;;;;;;;65.20;50.80;;;;;8.96;48.91;98566.47;6158901;28;126648;-59
2021/01/03 01:25:14;;;;;;;;;69.00;52.00;;;;;8.96;49.19;98566.47;6159537;28;127275;-59
2021/01/03 01:28:15;;;;;;;;;65.00;51.00;;;;;8.74;48.83;98524.88;6158625;28;126100;-59
2021/01/03 01:31:17;;;;;;;;;66.00;51.00;;;;;9.00;48.68;98551.53;6159055;28;128471;-59
2021/01/03 01:34:18;;;;;;;;;67.20;51.60;;;;;8.93;48.63;98545.41;6156281;28;128044;-59
2021/01/03 01:37:19;;;;;;;;;65.75;51.00;;;;;8.93;48.78;98553.47;6159021;28;127478;-59
2021/01/03 01:40:25;;;;;;;;;66.00;50.80;;;;;8.85;48.80;98553.72;6158719;28;126265;-59
2021/01/03 01:43:27;;;;;;;;;66.60;52.00;;;;;8.54;49.45;98530.41;6142264;28;124857;-59
2021/01/03 01:46:37;;;;;;;;;69.60;53.00;;;;;8.64;49.91;98558.44;6159106;28;125391;-59
2021/01/03 01:49:42;;;;;;;;;68.20;52.00;;;;;8.58;50.00;98558.47;6151160;28;123518;-59
2021/01/03 01:52:49;;;;;;;;;68.80;53.00;;;;;8.58;49.93;98553.94;6158662;28;126989;-59
2021/01/03 01:55:59;;;;;;;;;67.60;52.00;;;;;8.66;49.83;98559.03;6159192;28;127751;-59
2021/01/03 01:59:32;;;;;;;;;66.60;51.20;;;;;8.72;49.78;98556.53;6158688;28;124915;-59
2021/01/03 02:02:41;;;;;;;;;68.00;53.00;;;;;8.68;49.76;98548.91;6145864;28;125057;-59
2021/01/03 02:05:51;;;;;;;;;66.20;50.20;;;;;8.79;49.45;98552.75;6153051;28;125553;-59
2021/01/03 02:08:59;;;;;;;;;66.00;52.00;;;;;8.65;49.10;98532.38;6150730;28;125235;-59
2021/01/03 02:12:13;;;;;;;;;65.00;51.00;;;;;8.84;49.18;98552.09;6158372;28;125718;-59
2021/01/03 02:15:26;;;;;;;;;68.25;50.75;;;;;8.83;49.39;98540.53;6151812;28;126112;-59
2021/01/03 02:18:28;;;;;;;;;66.40;52.00;;;;;8.84;48.68;98539.50;6147113;28;126704;-59
2021/01/03 02:21:46;;;;;;;;;67.00;52.25;;;;;8.82;48.35;98536.19;6153373;28;125573;-59
2021/01/03 02:25:02;;;;;;;;;65.00;51.00;;;;;8.80;49.09;98537.44;6157993;28;125036;-59
2021/01/03 02:28:18;;;;;;;;;58.50;46.00;;;;;8.85;49.49;98530.34;6153022;28;125519;-59
2021/01/03 02:31:27;;;;;;;;;63.00;48.75;;;;;8.90;49.28;98529.69;6157350;28;124862;-59
2021/01/03 02:34:34;;;;;;;;;64.60;50.20;;;;;8.92;49.22;98527.63;6158367;28;126154;-59
2021/01/03 02:37:46;;;;;;;;;66.20;50.40;;;;;8.95;48.94;98521.81;6156315;28;126139;-59
2021/01/03 02:40:48;;;;;;;;;65.00;49.00;;;;;8.90;49.38;98522.47;6145431;28;125940;-59
2021/01/03 02:43:50;;;;;;;;;62.50;49.00;;;;;8.95;49.32;98519.09;6157702;28;126603;-59
2021/01/03 02:46:55;;;;;;;;;64.25;49.75;;;;;8.94;49.26;98520.97;6157652;28;127087;-59
2021/01/03 02:49:57;;;;;;;;;62.00;48.00;;;;;8.99;49.35;98517.66;6158417;28;126466;-59
2021/01/03 02:52:59;;;;;;;;;62.00;48.00;;;;;8.95;49.34;98511.03;6158904;28;96807;-59
2021/01/03 02:56:01;;;;;;;;;62.00;49.00;;;;;8.97;49.35;98501.72;6157519;28;126625;-59
2021/01/03 02:59:04;;;;;;;;;63.40;48.80;;;;;9.04;49.36;98504.38;6157779;28;125370;-59
2021/01/03 03:02:05;;;;;;;;;60.80;48.00;;;;;8.76;49.21;98455.59;6156665;28;126677;-59
2021/01/03 03:05:08;;;;;;;;;63.25;48.75;;;;;9.02;49.12;98507.28;6152331;28;127556;-59
2021/01/03 03:08:09;;;;;;;;;62.00;48.40;;;;;9.03;49.19;98500.84;6152649;28;125565;-59
2021/01/03 03:11:10;;;;;;;;;62.00;48.00;;;;;9.03;49.21;98497.34;6157880;28;125536;-59
2021/01/03 03:14:12;;;;;;;;;64.25;48.00;;;;;9.02;49.18;98501.91;6158022;28;127788;-59
2021/01/03 03:17:13;;;;;;;;;61.00;46.00;;;;;8.61;49.43;98426.38;6159254;28;125193;-59
2021/01/03 03:20:16;;;;;;;;;60.00;46.00;;;;;9.08;49.30;98474.13;6162117;28;126143;-59
2021/01/03 03:23:17;;;;;;;;;57.40;46.00;;;;;9.15;49.13;98465.97;6161818;28;126317;-59
2021/01/03 03:26:19;;;;;;;;;59.00;44.60;;;;;9.13;49.20;98463.53;6161710;28;126667;-58
2021/01/03 03:29:21;;;;;;;;;60.40;45.80;;;;;9.11;49.38;98473.66;6161265;28;126565;-58
2021/01/03 03:32:23;;;;;;;;;59.80;47.00;;;;;9.09;49.22;98466.84;6160779;28;126606;-58
2021/01/03 03:35:29;;;;;;;;;63.00;48.00;;;;;8.73;49.33;98439.94;6161254;28;125543;-58
2021/01/03 03:38:30;;;;;;;;;62.80;47.20;;;;;8.88;49.51;98467.28;6161880;28;125920;-58
2021/01/03 03:41:32;;;;;;;;;61.60;48.00;;;;;8.92;49.59;98455.03;6161798;28;126533;-58
2021/01/03 03:44:33;;;;;;;;;60.00;45.60;;;;;8.95;49.56;98447.34;6149378;28;126660;-59
2021/01/03 03:47:35;;;;;;;;;59.00;44.50;;;;;8.99;49.57;98447.75;6158674;28;125508;-58
2021/01/03 03:50:37;;;;;;;;;58.40;47.00;;;;;9.10;49.47;98434.38;6161335;28;125917;-58
2021/01/03 03:53:39;;;;;;;;;57.20;45.20;;;;;9.21;49.10;98411.31;6160979;28;126476;-58
2021/01/03 03:56:41;;;;;;;;;60.20;46.00;;;;;9.24;49.03;98404.63;6161428;28;125296;-59
2021/01/03 03:59:42;;;;;;;;;57.00;45.00;;;;;9.22;48.96;98406.75;6160348;28;127011;-59
2021/01/03 04:02:45;;;;;;;;;57.40;45.00;;;;;9.29;48.74;98419.06;6160416;28;127500;-59
2021/01/03 04:05:47;;;;;;;;;62.75;47.00;;;;;9.19;48.78;98417.97;6159616;28;127030;-59
2021/01/03 04:08:48;;;;;;;;;62.00;48.00;;;;;9.25;48.90;98431.31;6160679;28;126575;-59
2021/01/03 04:11:51;;;;;;;;;58.00;46.00;;;;;9.24;48.81;98428.84;6161282;28;125822;-59
2021/01/03 04:14:52;;;;;;;;;60.80;47.80;;;;;9.24;48.68;98439.59;6161088;28;127211;-59
2021/01/03 04:17:53;;;;;;;;;60.00;48.00;;;;;9.21;48.71;98434.69;6152865;28;127366;-59
2021/01/03 04:20:55;;;;;;;;;60.40;46.00;;;;;9.25;48.60;98454.69;6152767;28;127837;-59
2021/01/03 04:23:56;;;;;;;;;58.00;46.00;;;;;9.25;48.77;98441.25;6160139;28;125410;-59
2021/01/03 04:27:16;;;;;;;;;59.50;47.50;;;;;8.72;48.71;98353.09;6160239;28;124797;-59
2021/01/03 04:30:19;;;;;;;;;57.60;45.00;;;;;9.22;48.44;98428.25;6160179;28;126609;-59
2021/01/03 04:33:20;;;;;;;;;58.80;46.00;;;;;8.94;48.44;98381.19;6159978;28;127266;-59
2021/01/03 04:36:23;;;;;;;;;60.00;46.00;;;;;8.77;48.73;98379.31;6158963;28;125859;-59
2021/01/03 04:39:26;;;;;;;;;58.00;46.00;;;;;8.77;48.66;98377.44;6151840;28;124951;-59
2021/01/03 04:42:32;;;;;;;;;62.00;48.00;;;;;9.04;48.50;98427.19;6150219;28;125544;-59
2021/01/03 04:45:38;;;;;;;;;60.60;47.00;;;;;8.88;48.58;98408.97;6154754;28;124364;-59
2021/01/03 04:48:40;;;;;;;;;63.00;48.00;;;;;9.00;48.75;98426.00;6159910;28;124918;-59
2021/01/03 04:51:51;;;;;;;;;65.20;48.00;;;;;8.98;48.44;98424.59;6160531;28;124934;-59
2021/01/03 04:55:20;;;;;;;;;61.60;47.20;;;;;8.92;48.15;98420.91;6159803;28;125760;-59
2021/01/03 04:59:00;;;;;;;;;62.20;48.80;;;;;8.89;48.51;98426.75;6155610;28;126115;-59
2021/01/03 05:02:11;;;;;;;;;61.20;48.00;;;;;8.83;49.01;98426.81;6159693;28;124739;-58
2021/01/03 05:05:24;;;;;;;;;60.75;48.00;;;;;8.76;48.93;98429.53;6158566;28;126917;-58
2021/01/03 05:08:48;;;;;;;;;62.00;47.80;;;;;8.75;49.02;98424.41;6157561;28;125094;-59
2021/01/03 05:12:04;;;;;;;;;62.75;48.00;;;;;8.73;48.65;98427.31;6160202;28;127803;-59
2021/01/03 05:15:13;;;;;;;;;62.75;47.50;;;;;8.74;48.54;98430.81;6159777;28;124912;-59
2021/01/03 05:18:15;;;;;;;;;59.60;47.60;;;;;8.69;48.48;98421.56;6158889;28;124739;-59
2021/01/03 05:21:16;;;;;;;;;58.75;46.25;;;;;8.73;48.44;98423.81;6135641;28;127386;-59
2021/01/03 05:24:22;;;;;;;;;62.25;48.00;;;;;8.24;48.22;98347.53;6159758;28;127517;-59
2021/01/03 05:27:25;;;;;;;;;63.00;48.00;;;;;8.71;48.19;98413.25;6158960;28;124619;-59
2021/01/03 05:30:28;;;;;;;;;61.00;48.00;;;;;8.62;48.01;98403.84;6154519;28;126983;-59
2021/01/03 05:33:30;;;;;;;;;60.00;46.00;;;;;8.69;48.13;98410.00;6159102;28;126218;-59
2021/01/03 05:36:34;;;;;;;;;60.25;47.00;;;;;8.66;48.30;98410.41;6158773;28;126672;-59
2021/01/03 05:39:36;;;;;;;;;62.00;47.00;;;;;8.67;48.28;98423.63;6158565;28;126115;-59
2021/01/03 05:42:38;;;;;;;;;61.00;48.00;;;;;8.70;48.53;98420.50;6159106;28;126094;-59
2021/01/03 05:46:05;;;;;;;;;62.40;48.00;;;;;8.73;48.42;98415.75;6143714;28;124720;-59
2021/01/03 05:49:11;;;;;;;;;61.60;48.00;;;;;8.65;48.62;98430.25;6158074;28;124441;-59
2021/01/03 05:52:29;;;;;;;;;60.00;46.00;;;;;8.61;48.48;98437.94;6159119;28;126760;-59
2021/01/03 05:55:31;;;;;;;;;62.00;47.60;;;;;8.58;48.38;98422.28;6158707;28;126200;-58
2021/01/03 05:58:40;;;;;;;;;57.60;46.00;;;;;8.55;48.35;98409.28;6158326;28;126440;-58
2021/01/03 06:01:43;;;;;;;;;59.20;47.80;;;;;8.56;48.37;98405.53;6159148;28;124334;-60
2021/01/03 06:04:44;;;;;;;;;62.40;48.40;;;;;8.56;48.62;98421.66;6157921;28;125080;-60
2021/01/03 06:08:03;;;;;;;;;62.00;47.00;;;;;8.54;48.72;98417.56;6158404;28;126579;-61
2021/01/03 06:11:20;;;;;;;;;61.00;46.25;;;;;8.24;48.90;98377.09;6158653;28;126860;-59
2021/01/03 06:14:23;;;;;;;;;62.20;49.00;;;;;8.54;48.33;98415.72;6148501;28;127320;-59
2021/01/03 06:17:45;;;;;;;;;58.20;46.60;;;;;8.53;48.59;98416.75;6156382;28;124772;-59
2021/01/03 06:20:47;;;;;;;;;64.20;48.00;;;;;8.52;48.40;98417.78;6151147;28;126113;-58
2021/01/03 06:24:13;;;;;;;;;58.60;46.80;;;;;8.50;48.36;98405.63;6158152;28;126556;-59
2021/01/03 06:27:32;;;;;;;;;61.80;46.60;;;;;8.36;48.50;98363.78;6157880;28;125796;-59
2021/01/03 06:30:35;;;;;;;;;59.60;46.00;;;;;8.57;48.97;98411.75;6158648;28;124281;-58
2021/01/03 06:33:58;;;;;;;;;62.00;48.00;;;;;8.63;48.74;98419.75;6158549;28;126092;-58
2021/01/03 06:37:05;;;;;;;;;57.00;45.00;;;;;8.69;48.87;98412.69;6157820;28;126100;-58
2021/01/03 06:40:22;;;;;;;;;57.40;45.40;;;;;8.65;48.79;98398.84;6146302;28;124645;-58
2021/01/03 06:44:07;;;;;;;;;58.40;45.00;;;;;8.66;48.75;98391.59;6158286;28;126188;-59
2021/01/03 06:47:45;;;;;;;;;59.00;46.60;;;;;8.68;48.96;98393.03;6156648;28;124740;-59
2021/01/03 06:50:46;;;;;;;;;55.40;44.40;;;;;8.75;48.71;98390.28;6159601;28;124478;-59
2021/01/03 06:54:19;;;;;;;;;57.75;45.00;;;;;8.74;48.94;98390.50;6162260;28;126658;-59
2021/01/03 06:57:38;;;;;;;;;60.00;46.50;;;;;8.79;49.12;98390.66;6162001;28;125858;-59
2021/01/03 07:00:48;;;;;;;;;58.80;45.00;;;;;8.81;49.10;98389.38;6162632;28;125862;-59
2021/01/03 07:03:52;;;;;;;;;58.00;45.60;;;;;8.88;48.77;98370.50;6162308;28;126471;-59
2021/01/03 07:06:57;;;;;;;;;57.25;44.00;;;;;8.94;48.68;98381.19;6162268;28;126404;-60
2021/01/03 07:10:02;;;;;;;;;56.00;44.40;;;;;8.95;48.61;98393.59;6161719;28;124585;-58
2021/01/03 07:13:29;;;;;;;;;58.00;44.00;;;;;8.83;48.69;98408.81;6161582;28;124918;-60
2021/01/03 07:16:56;;;;;;;;;54.20;44.00;;;;;8.74;48.88;98403.94;6149521;28;124719;-58
2021/01/03 07:20:03;;;;;;;;;55.80;44.00;;;;;8.81;48.92;98392.06;6161449;28;124783;-59
2021/01/03 07:23:07;;;;;;;;;53.60;42.00;;;;;8.86;48.75;98410.22;6161395;28;125991;-59
2021/01/03 07:26:27;;;;;;;;;56.20;44.00;;;;;8.90;48.70;98408.72;6144114;28;125949;-59
2021/01/03 07:29:28;;;;;;;;;57.00;45.60;;;;;8.87;48.62;98379.63;6161437;28;124808;-59
2021/01/03 07:32:32;;;;;;;;;55.00;43.75;;;;;8.93;48.63;98371.50;6161361;28;126501;-58
2021/01/03 07:35:40;;;;;;;;;55.00;43.00;;;;;8.92;48.57;98371.72;6162017;28;127130;-58
2021/01/03 07:38:41;;;;;;;;;56.60;44.00;;;;;8.96;48.67;98368.34;6161225;28;126241;-59
2021/01/03 07:41:44;;;;;;;;;53.00;42.80;;;;;8.89;48.82;98367.63;6161249;28;126333;-58
2021/01/03 07:44:47;;;;;;;;;56.00;43.00;;;;;8.78;48.67;98340.66;6158969;28;124938;-58
2021/01/03 07:47:54;;;;;;;;;53.00;43.00;;;;;9.05;48.75;98383.13;6159750;28;126441;-58
2021/01/03 07:50:55;;;;;;;;;50.80;40.20;;;;;9.09;48.55;98386.19;6171223;28;124679;-58
2021/01/03 07:53:56;;;;;;;;;54.60;43.00;;;;;9.09;48.55;98378.94;6161519;28;125063;-58
2021/01/03 07:56:58;;;;;;;;;52.75;40.25;;;;;9.13;48.66;98376.66;6160840;28;125431;-58
2021/01/03 08:00:00;;;;;;;;;50.20;39.60;;;;;9.22;48.73;98399.50;6161056;28;127963;-58
2021/01/03 08:03:05;;;;;;;;;50.00;41.00;;;;;9.23;48.62;98405.69;6160935;28;125246;-59
2021/01/03 08:06:10;;;;;;;;;51.25;42.00;;;;;9.10;48.67;98401.28;6144044;28;124425;-59
2021/01/03 08:09:21;;;;;;;;;52.60;42.20;;;;;9.03;48.55;98406.75;6161047;28;126150;-59
2021/01/03 08:12:37;;;;;;;;;55.75;43.25;;;;;9.12;48.97;98409.97;6160647;28;126162;-59
2021/01/03 08:15:40;;;;;;;;;56.00;43.75;;;;;9.18;48.90;98413.63;6160965;28;124539;-59
2021/01/03 08:19:09;;;;;;;;;53.60;43.40;;;;;8.91;48.76;98364.69;6161181;28;126707;-59
2021/01/03 08:22:10;;;;;;;;;55.00;44.00;;;;;9.36;48.64;98427.06;6130943;28;125809;-60
2021/01/03 08:25:24;;;;;;;;;53.00;42.50;;;;;9.46;48.38;98422.78;6160042;28;125921;-59
2021/01/03 08:28:29;;;;;;;;;51.60;40.60;;;;;9.57;48.02;98427.44;6149582;28;125951;-59
2021/01/03 08:31:32;;;;;;;;;52.00;41.50;;;;;9.68;47.56;98428.50;6159578;28;127162;-59
2021/01/03 08:34:37;;;;;;;;;54.60;41.60;;;;;9.57;47.27;98407.75;6159917;28;127153;-59
2021/01/03 08:37:45;;;;;;;;;49.80;40.60;;;;;9.83;47.40;98418.16;6145140;28;125531;-59
2021/01/03 08:40:47;;;;;;;;;49.60;39.80;;;;;9.91;47.34;98419.72;6159071;28;125022;-59
2021/01/03 08:43:49;;;;;;;;;52.00;41.00;;;;;9.76;47.10;98392.41;6159578;28;124558;-59
2021/01/03 08:47:01;;;;;;;;;50.40;41.00;;;;;9.99;47.21;98417.53;6167088;28;125641;-59
2021/01/03 08:50:09;;;;;;;;;47.00;39.00;;;;;10.06;46.96;98425.53;6160150;28;125478;-59
2021/01/03 08:53:19;;;;;;;;;51.40;40.00;;;;;10.08;46.60;98433.34;6160489;28;126140;-59
2021/01/03 08:56:27;;;;;;;;;52.00;41.80;;;;;10.08;46.57;98436.88;6159654;28;126808;-59
2021/01/03 08:59:29;;;;;;;;;48.00;40.00;;;;;10.13;46.81;98433.47;6160564;28;127064;-59
2021/01/03 09:02:30;;;;;;;;;50.00;39.60;;;;;10.14;47.14;98438.66;6160315;28;126498;-59
2021/01/03 09:05:36;;;;;;;;;50.00;38.75;;;;;10.22;46.81;98450.97;6159559;28;126563;-60
2021/01/03 09:08:41;;;;;;;;;47.00;39.00;;;;;10.21;46.71;98439.41;6158389;28;125993;-60
2021/01/03 09:12:05;;;;;;;;;45.00;36.00;;;;;10.25;46.10;98435.22;6155823;28;126143;-59
2021/01/03 09:15:14;;;;;;;;;44.40;36.00;;;;;10.29;46.31;98441.78;6158609;28;126983;-60
2021/01/03 09:18:35;;;;;;;;;44.00;36.00;;;;;10.33;46.01;98434.88;6159795;28;125957;-60
2021/01/03 09:21:50;;;;;;;;;46.75;37.50;;;;;10.32;45.83;98432.38;6145703;28;126959;-59
2021/01/03 09:25:05;;;;;;;;;45.20;38.00;;;;;10.39;45.61;98428.56;6160237;28;126998;-60
2021/01/03 09:28:18;;;;;;;;;45.40;36.00;;;;;10.48;45.79;98430.91;6148383;28;126342;-59
2021/01/03 09:31:23;;;;;;;;;47.60;37.20;;;;;10.42;45.61;98414.59;6157486;28;126047;-59
2021/01/03 09:34:49;;;;;;;;;45.00;36.40;;;;;10.60;45.51;98429.06;6158234;28;125960;-59
2021/01/03 09:38:50;;;;;;;;;44.60;36.00;;;;;10.52;45.13;98442.84;6147728;28;126009;-60
2021/01/03 09:42:32;;;;;;;;;47.00;38.00;;;;;10.53;45.62;98450.72;6157097;28;126670;-59
2021/01/03 09:45:55;;;;;;;;;49.60;39.60;;;;;10.46;45.50;98439.22;6153443;28;124994;-59
2021/01/03 09:49:28;;;;;;;;;46.40;38.00;;;;;10.31;45.35;98404.63;6156700;28;127033;-59
2021/01/03 09:52:56;;;;;;;;;47.00;38.00;;;;;10.52;45.39;98432.06;6121078;28;122868;-60
2021/01/03 09:56:18;;;;;;;;;47.00;39.00;;;;;10.52;45.20;98429.38;6125702;28;125127;-59
2021/01/03 09:59:21;;;;;;;;;49.60;37.60;;;;;10.64;45.54;98439.16;6153347;28;127399;-59
2021/01/03 10:02:24;;;;;;;;;49.00;40.00;;;;;10.70;45.09;98440.09;6158153;28;124743;-59
2021/01/03 10:05:37;;;;;;;;;48.50;38.50;;;;;10.73;45.25;98432.34;6159435;28;127174;-59
2021/01/03 10:08:39;;;;;;;;;50.20;40.20;;;;;10.83;45.17;98435.28;6158937;28;125833;-59
2021/01/03 10:11:43;;;;;;;;;50.00;40.00;;;;;10.91;45.14;98420.63;6152445;28;123513;-59
2021/01/03 10:14:44;;;;;;;;;50.67;40.00;;;;;10.96;45.71;98403.72;6158343;28;126171;-58
2021/01/03 10:18:06;;;;;;;;;49.60;40.60;;;;;11.00;44.96;98410.28;6154895;28;126093;-58
2021/01/03 10:21:37;;;;;;;;;47.00;40.00;;;;;11.05;45.26;98421.19;6158107;28;124731;-60
2021/01/03 10:24:39;;;;;;;;;48.00;39.60;;;;;11.08;45.02;98420.72;6127394;28;126091;-60
2021/01/03 10:27:52;;;;;;;;;52.00;40.25;;;;;11.11;44.87;98412.97;6143869;28;126461;-59
2021/01/03 10:30:53;;;;;;;;;48.75;39.75;;;;;11.15;44.48;98421.41;6158413;28;125920;-59
2021/01/03 10:33:54;;;;;;;;;50.40;40.00;;;;;11.16;44.64;98410.41;6158778;28;126489;-59
2021/01/03 10:36:59;;;;;;;;;49.00;39.00;;;;;11.15;44.73;98407.94;6152815;28;124028;-59
2021/01/03 10:40:01;;;;;;;;;48.40;39.00;;;;;11.00;44.94;98421.91;6157413;28;126765;-59
2021/01/03 10:43:03;;;;;;;;;55.00;42.00;;;;;10.60;45.72;98416.41;6156111;28;125618;-59
2021/01/03 10:46:04;;;;;;;;;50.00;41.00;;;;;10.56;45.85;98411.69;6146592;28;124787;-59
2021/01/03 10:49:07;;;;;;;;;51.20;40.80;;;;;10.58;45.89;98405.03;6158006;28;125319;-59
2021/01/03 10:52:09;;;;;;;;;52.20;41.20;;;;;10.48;45.76;98385.91;6156799;28;126156;-60
2021/01/03 10:55:12;;;;;;;;;49.00;40.00;;;;;10.73;45.90;98408.09;6156904;28;125545;-60
2021/01/03 10:58:13;;;;;;;;;52.60;41.00;;;;;10.82;45.55;98397.75;6156989;28;126786;-60
2021/01/03 11:01:15;;;;;;;;;53.00;42.00;;;;;10.92;45.24;98394.47;6156551;28;126009;-60
2021/01/03 11:04:22;;;;;;;;;53.20;42.00;;;;;10.79;45.03;98368.59;6154970;28;126980;-60
2021/01/03 11:07:24;;;;;;;;;53.00;42.80;;;;;11.05;45.01;98380.72;6157489;28;126139;-60
2021/01/03 11:10:25;;;;;;;;;55.60;42.40;;;;;11.12;44.92;98389.53;6144099;28;125062;-60
2021/01/03 11:13:27;;;;;;;;;56.00;45.00;;;;;11.16;44.76;98390.69;6158398;28;125730;-60
2021/01/03 11:16:34;;;;;;;;;55.00;44.60;;;;;11.19;44.55;98377.53;6158083;28;125168;-60
2021/01/03 11:19:37;;;;;;;;;57.00;46.00;;;;;11.24;44.45;98366.84;6158357;28;124776;-60
2021/01/03 11:22:38;;;;;;;;;59.60;46.00;;;;;11.26;44.70;98362.03;6156907;28;126012;-60
2021/01/03 11:25:40;;;;;;;;;56.40;44.60;;;;;11.05;44.82;98367.25;6157467;28;128324;-60
2021/01/03 11:28:41;;;;;;;;;58.00;46.00;;;;;11.01;44.96;98375.00;6158046;28;127215;-60
2021/01/03 11:31:46;;;;;;;;;60.00;46.50;;;;;10.88;45.00;98377.13;6157708;28;126414;-60
2021/01/03 11:34:47;;;;;;;;;60.80;46.80;;;;;10.88;45.27;98359.06;6158216;28;127074;-60
2021/01/03 11:37:49;;;;;;;;;60.75;46.00;;;;;10.66;45.31;98328.38;6159003;28;125290;-59
2021/01/03 11:40:50;;;;;;;;;60.60;47.60;;;;;10.88;45.00;98366.34;6150763;28;127492;-59
2021/01/03 11:43:52;;;;;;;;;61.60;48.00;;;;;10.85;45.18;98363.03;6159908;28;126610;-59
2021/01/03 11:47:02;;;;;;;;;60.75;47.50;;;;;10.80;45.24;98337.84;6159742;28;125545;-59
2021/01/03 11:50:07;;;;;;;;;61.60;48.40;;;;;10.97;45.27;98367.63;6159989;28;127855;-59
2021/01/03 11:53:08;;;;;;;;;61.40;48.00;;;;;10.98;45.33;98380.03;6157491;28;124850;-60
2021/01/03 11:56:10;;;;;;;;;58.00;46.00;;;;;11.04;45.08;98373.72;6158698;28;126296;-59
2021/01/03 11:59:11;;;;;;;;;62.00;49.00;;;;;10.92;45.05;98359.41;6158969;28;126554;-59
2021/01/03 12:02:13;;;;;;;;;61.60;47.00;;;;;10.50;45.08;98329.91;6159339;28;128092;-60
2021/01/03 12:05:18;;;;;;;;;61.00;48.00;;;;;10.98;45.26;98367.38;6158092;28;124357;-59
2021/01/03 12:08:19;;;;;;;;;60.25;46.25;;;;;10.91;44.93;98371.25;6158531;28;126090;-59
2021/01/03 12:11:23;;;;;;;;;58.60;48.00;;;;;10.93;45.08;98380.75;6159000;28;125597;-59
2021/01/03 12:14:26;;;;;;;;;58.60;46.80;;;;;10.74;45.62;98371.16;6158725;28;124920;-61
2021/01/03 12:17:27;;;;;;;;;62.00;46.60;;;;;10.78;45.78;98375.84;6159512;28;125255;-59
2021/01/03 12:20:28;;;;;;;;;60.00;46.00;;;;;10.71;45.52;98377.81;6159739;28;125964;-59
2021/01/03 12:23:30;;;;;;;;;60.00;46.80;;;;;10.70;45.96;98378.09;6159452;28;126653;-59
2021/01/03 12:26:37;;;;;;;;;56.20;44.00;;;;;10.73;46.23;98367.63;6159733;28;125271;-59
2021/01/03 12:29:39;;;;;;;;;62.00;46.50;;;;;10.85;46.24;98381.91;6160317;28;126799;-59
2021/01/03 12:32:41;;;;;;;;;60.00;47.00;;;;;10.91;45.83;98385.56;6160383;28;127324;-59
2021/01/03 12:35:42;;;;;;;;;60.20;46.80;;;;;10.98;46.08;98367.38;6159776;28;125274;-59
2021/01/03 12:38:44;;;;;;;;;61.80;48.80;;;;;11.09;45.91;98358.44;6160792;28;126460;-59
2021/01/03 12:41:46;;;;;;;;;60.50;48.00;;;;;11.18;45.51;98356.22;6160853;28;127323;-59
2021/01/03 12:44:51;;;;;;;;;60.40;48.00;;;;;11.23;45.31;98359.84;6160374;28;126396;-59
2021/01/03 12:47:52;;;;;;;;;63.60;49.00;;;;;11.03;45.72;98331.59;6160920;28;127902;-58
2021/01/03 12:50:53;;;;;;;;;64.20;49.80;;;;;11.28;45.21;98365.34;6159319;28;126647;-58
2021/01/03 12:53:55;;;;;;;;;64.00;51.00;;;;;11.40;44.79;98364.47;6157988;28;127879;-59
2021/01/03 12:56:56;;;;;;;;;64.00;51.00;;;;;11.47;44.71;98359.75;6159526;28;125580;-59
2021/01/03 12:59:58;;;;;;;;;67.00;52.00;;;;;11.53;44.21;98353.41;6160018;28;127088;-59
2021/01/03 13:02:59;;;;;;;;;63.80;51.00;;;;;11.56;44.15;98342.13;6160423;28;126829;-59
2021/01/03 13:06:02;;;;;;;;;67.60;52.00;;;;;11.44;43.44;98322.44;6159816;28;127790;-59
2021/01/03 13:09:06;;;;;;;;;63.00;50.00;;;;;11.62;43.88;98346.56;6159248;28;127379;-59
2021/01/03 13:12:07;;;;;;;;;68.00;51.25;;;;;11.37;43.59;98319.06;6153618;28;126258;-60
2021/01/03 13:15:11;;;;;;;;;68.20;52.00;;;;;11.68;43.84;98361.78;6158990;28;126205;-59
2021/01/03 13:18:13;;;;;;;;;65.60;50.60;;;;;11.69;43.10;98360.72;6159254;28;124872;-59
2021/01/03 13:21:15;;;;;;;;;66.00;52.00;;;;;11.43;43.14;98323.50;6159227;28;127539;-58
2021/01/03 13:24:16;;;;;;;;;62.40;50.00;;;;;11.71;43.32;98359.44;6157446;28;124491;-58
2021/01/03 13:27:18;;;;;;;;;65.00;50.00;;;;;11.55;43.40;98351.25;6159606;28;125367;-58
2021/01/03 13:30:20;;;;;;;;;68.00;52.00;;;;;11.45;43.78;98343.78;6158374;28;126727;-59
2021/01/03 13:33:21;;;;;;;;;64.00;47.00;;;;;11.44;44.01;98347.53;6159308;28;125488;-59
2021/01/03 13:36:27;;;;;;;;;63.60;50.60;;;;;11.37;43.87;98362.25;6158090;28;126451;-59
2021/01/03 13:39:29;;;;;;;;;67.00;52.00;;;;;11.39;44.33;98363.63;6128620;28;124239;-59
2021/01/03 13:42:30;;;;;;;;;62.00;49.00;;;;;11.48;43.85;98351.44;6139603;28;127261;-59
2021/01/03 13:45:33;;;;;;;;;68.00;52.00;;;;;11.67;44.08;98352.06;6155719;28;126560;-59
2021/01/03 13:48:38;;;;;;;;;65.00;51.00;;;;;11.58;43.70;98345.41;6158183;28;127329;-59
2021/01/03 13:51:40;;;;;;;;;63.40;49.40;;;;;11.84;43.51;98349.41;6158231;28;127168;-59
2021/01/03 13:54:44;;;;;;;;;66.00;51.50;;;;;12.00;43.45;98362.94;6159510;28;127473;-59
2021/01/03 13:57:46;;;;;;;;;63.20;50.20;;;;;12.20;43.08;98361.66;6123609;28;126071;-59
2021/01/03 14:00:47;;;;;;;;;62.40;49.60;;;;;12.33;42.87;98359.44;6157565;28;127214;-59
2021/01/03 14:03:49;;;;;;;;;66.00;50.60;;;;;12.54;42.64;98345.19;6150932;28;128725;-59
2021/01/03 14:06:55;;;;;;;;;67.00;51.80;;;;;12.74;42.09;98344.69;6150343;28;125284;-59
2021/01/03 14:09:57;;;;;;;;;63.80;50.40;;;;;12.91;41.61;98345.44;6159226;28;126755;-58
2021/01/03 14:12:58;;;;;;;;;63.67;49.67;;;;;12.82;41.82;98313.66;6149933;28;126380;-59